Flight Track Log - Related Links

Times and Time Zones

All times are in EDT time to prevent confusion due to time zone crossing. See the UAL4295 flight status page for this flight to view local times or setup timezone preferences in your user account.

Time Position Orientation Groundspeed Altitude Reporting Facility
EDT Latitude Longitude Course Direction KTS MPH feet Rate Location/Type
Sun 07:10:32 PM 40.6667 -74.1833 276° West 162 186 800  Level New York TRACON
Sun 07:11:32 PM 40.6333 -74.2000 201° Southwest 216 249 2,500 2,250 Climbing New York TRACON
Sun 07:12:32 PM 40.6500 -74.3000 282° West 258 297 5,300 2,600 Climbing New York TRACON
Sun 07:13:32 PM 40.6833 -74.3833 298° West 274 315 7,700 2,550 Climbing New York TRACON
Sun 07:14:00 PM 40.7478 -74.6762 277° West  Level FlightAware Approximate
Sun 07:14:32 PM 40.7000 -74.4833 282° West 280 322 10,400  Level New York TRACON
Sun 07:15:00 PM 40.7584 -74.8084 276° West  Level FlightAware Approximate
Sun 07:15:32 PM 40.7167 -74.6000 281° West 313 360 11,500  Level New York TRACON
Sun 07:15:52 PM 40.7214 -74.6344 280° West 330 380 11,800 1,125 Climbing New York Center
Sun 07:16:52 PM 40.7386 -74.7450 282° West 342 394 13,000 1,388 Climbing New York Center
Sun 07:17:53 PM 40.7628 -74.8889 283° West 361 415 14,600 2,083 Climbing New York Center
Sun 07:18:53 PM 40.7836 -75.0053 283° West 367 422 17,200 1,934 Climbing New York Center
Sun 07:19:54 PM 40.8000 -75.1297 280° West 362 417 18,500 1,279 Climbing New York Center
Sun 07:20:55 PM 40.7847 -75.2547 261° West 351 404 19,800 1,322 Climbing New York Center
Sun 07:21:52 PM 40.7656 -75.3794 259° West 346 398 21,100 1,169 Climbing New York Center
Sun 07:22:53 PM 40.7206 -75.5133 246° West 352 405 22,100 992 Climbing New York Center
Sun 07:23:53 PM 40.6739 -75.6361 243° Southwest 364 419 23,100 1,000 Climbing New York Center
Sun 07:24:53 PM 40.6250 -75.7583 242° Southwest 373 429 24,100 942 Climbing New York Center
Sun 07:25:54 PM 40.5778 -75.8861 244° Southwest 378 435 25,000 893 Climbing New York Center
Sun 07:26:54 PM 40.5333 -75.9975 242° Southwest 388 447 25,900 966 Climbing New York Center
Sun 07:27:52 PM 40.4861 -76.1222 244° Southwest 388 447 26,900 966 Climbing New York Center
Sun 07:28:52 PM 40.4389 -76.2442 243° Southwest 388 447 27,800 793 Climbing New York Center
Sun 07:29:53 PM 40.3936 -76.3631 243° Southwest 377 434 28,500 836 Climbing New York Center
Sun 07:30:54 PM 40.3586 -76.4883 250° West 377 434 29,500 992 Climbing New York Center
Sun 07:31:54 PM 40.3253 -76.6136 251° West 372 428 30,500 1,017 Climbing New York Center
Sun 07:32:52 PM 40.2917 -76.7414 251° West 367 422 31,500 966 Climbing New York Center
Sun 07:33:52 PM 40.2603 -76.8667 252° West 367 422 32,400 942 Climbing New York Center
Sun 07:34:53 PM 40.2289 -76.9917 252° West 367 422 33,400 1,000 Climbing New York Center
Sun 07:35:52 PM 40.1975 -77.1111 251° West 367 422 34,400 942 Climbing New York Center
Sun 07:36:54 PM 40.1661 -77.2306 251° West 360 414 35,300 787 Climbing New York Center
Sun 07:37:54 PM 40.1347 -77.3444 250° West 348 400 36,000 356 Climbing New York Center
Sun 07:38:52 PM 40.1025 -77.4717 252° West 342 394 36,000  Level New York Center
Sun 07:40:09 PM 40.0997 -77.6272 269° West 345 397 36,000  Level Cleveland Center
Sun 07:41:09 PM 40.0989 -77.7575 270° West 356 410 36,000  Level Cleveland Center
Sun 07:42:09 PM 40.0978 -77.8853 269° West 362 417 36,000 400 Level Cleveland Center
Sun 07:43:09 PM 40.0886 -78.0322 265° West 369 425 36,800 500 Climbing Cleveland Center
Sun 07:44:09 PM 40.0872 -78.1542 269° West 359 413 37,000 100 Climbing Cleveland Center
Sun 07:45:09 PM 40.0939 -78.2789 274° West 348 400 37,000  Level Cleveland Center
Sun 07:46:09 PM 40.0964 -78.4064 272° West 348 400 37,000  Level Cleveland Center
Sun 07:47:09 PM 40.0986 -78.5311 271° West 348 400 37,000  Level Cleveland Center
Sun 07:48:09 PM 40.1011 -78.6614 271° West 348 400 37,000  Level Cleveland Center
Sun 07:49:09 PM 40.1072 -78.7889 274° West 348 400 37,000  Level Cleveland Center
Sun 07:50:09 PM 40.1092 -78.9192 271° West 348 400 37,000  Level Cleveland Center
Sun 07:51:09 PM 40.1111 -79.0494 271° West 353 406 37,000  Level Cleveland Center
Sun 07:52:09 PM 40.1128 -79.1797 271° West 359 413 37,000  Level Cleveland Center
Sun 07:53:09 PM 40.1164 -79.3100 272° West 364 419 37,000  Level Cleveland Center
Sun 07:54:09 PM 40.1197 -79.4428 272° West 364 419 37,000  Level Cleveland Center
Sun 07:55:09 PM 40.1231 -79.5703 272° West 364 419 37,000  Level Cleveland Center
Sun 07:56:09 PM 40.1264 -79.7033 272° West 364 419 37,000  Level Cleveland Center
Sun 07:57:09 PM 40.1272 -79.8364 271° West 364 419 37,000  Level Cleveland Center
Sun 07:58:09 PM 40.1281 -79.9667 271° West 364 419 37,000  Level Cleveland Center
Sun 07:59:09 PM 40.1328 -80.0942 273° West 364 419 37,000  Level Cleveland Center
Sun 08:00:09 PM 40.1311 -80.2247 269° West 364 419 37,000  Level Cleveland Center
Sun 08:01:09 PM 40.1317 -80.3550 270° West 364 419 37,000  Level Cleveland Center
Sun 08:02:09 PM 40.1339 -80.4825 271° West 359 413 37,000  Level Cleveland Center
Sun 08:03:09 PM 40.1358 -80.6156 271° West 365 420 37,000  Level Cleveland Center
Sun 08:04:09 PM 40.1381 -80.7461 271° West 365 420 37,000  Level Cleveland Center
Sun 08:05:09 PM 40.1378 -80.8736 270° West 359 413 37,000  Level Cleveland Center
Sun 08:06:44 PM 40.1347 -81.0692 269° West 365 420 37,000  Level Indianapolis Center
Sun 08:07:46 PM 40.1339 -81.2061 270° West 370 426 37,000  Level Indianapolis Center
Sun 08:08:47 PM 40.1108 -81.3375 257° West 369 425 37,000  Level Indianapolis Center
Sun 08:09:49 PM 40.0975 -81.4914 264° West 366 421 37,000  Level Indianapolis Center
Sun 08:10:51 PM 40.0972 -81.6297 270° West 374 430 37,000  Level Indianapolis Center
Sun 08:11:52 PM 40.0972 -81.7683 270° West 377 434 37,000  Level Indianapolis Center
Sun 08:12:54 PM 40.0975 -81.9097 270° West 382 440 37,000 -97 Level Indianapolis Center
Sun 08:13:56 PM 40.0950 -82.0508 269° West 386 444 36,800 -488 Descending Indianapolis Center
Sun 08:14:57 PM 40.0736 -82.1889 259° West 385 443 36,000 -390 Descending Indianapolis Center
Sun 08:15:59 PM 40.0603 -82.3303 263° West 388 447 36,000  Level Indianapolis Center
Sun 08:17:01 PM 40.0475 -82.4717 263° West 388 447 36,000 -49 Level Indianapolis Center
Sun 08:18:02 PM 40.0386 -82.6144 265° West 392 451 35,900  Descending Indianapolis Center
Sun 08:19:04 PM 40.0344 -82.7586 268° West 394 453 36,000 48 Climbing Indianapolis Center
Sun 08:20:06 PM 40.0350 -82.9292 270° West 399 459 36,000  Level Indianapolis Center
Sun 08:21:07 PM 40.0358 -83.0728 270° West 397 457 36,000  Level Indianapolis Center
Sun 08:22:09 PM 40.0350 -83.2217 270° West 406 467 36,000  Level Indianapolis Center
Sun 08:23:11 PM 40.0353 -83.3694 270° West 409 471 36,000  Level Indianapolis Center
Sun 08:24:12 PM 40.0344 -83.5181 270° West 412 474 36,000  Level Indianapolis Center
Sun 08:25:14 PM 40.0333 -83.6664 269° West 411 473 36,000  Level Indianapolis Center
Sun 08:26:15 PM 40.0325 -83.8136 270° West 407 468 36,000  Level Indianapolis Center
Sun 08:27:17 PM 40.0311 -83.9850 269° West 405 466 36,000  Level Indianapolis Center
Sun 08:28:18 PM 40.0297 -84.1336 269° West 406 467 36,000  Level Indianapolis Center
Sun 08:29:20 PM 40.0286 -84.2847 269° West 411 473 36,000  Level Indianapolis Center
Sun 08:30:22 PM 40.0269 -84.4322 269° West 406 467 36,000  Level Indianapolis Center
Sun 08:31:23 PM 40.0233 -84.5853 268° West 415 478 36,000  Level Indianapolis Center
Sun 08:32:25 PM 40.0208 -84.7353 269° West 413 475 36,000  Level Indianapolis Center
Sun 08:33:26 PM 40.0194 -84.9006 269° West 414 476 36,000  Level Indianapolis Center
Sun 08:34:28 PM 40.0156 -85.0539 268° West 420 483 36,000  Level Indianapolis Center
Sun 08:35:29 PM 40.0131 -85.2075 269° West 421 484 36,000  Level Indianapolis Center
Sun 08:36:30 PM 40.0106 -85.3628 269° West 426 490 36,000  Level Indianapolis Center
Sun 08:37:32 PM 40.0072 -85.5167 268° West 424 488 36,000  Level Indianapolis Center
Sun 08:38:33 PM 40.0033 -85.6708 268° West 425 489 36,000  Level Indianapolis Center
Sun 08:39:47 PM 39.9983 -85.8781 268° West 427 491 36,000  Level Indianapolis Center
Sun 08:40:48 PM 39.9953 -86.0328 269° West 427 491 36,000  Level Indianapolis Center
Sun 08:41:28 PM 39.9914 -86.1356 267° West 430 495 36,000  Level Chicago Center
Sun 08:42:30 PM 39.9881 -86.2919 268° West 434 499 36,000  Level Chicago Center
Sun 08:43:32 PM 39.9825 -86.4469 267° West 432 497 36,000  Level Chicago Center
Sun 08:43:52 PM 39.9811 -86.4986 268° West 431 496 36,000  Level Indianapolis Center
Sun 08:44:54 PM 39.9761 -86.6553 268° West 432 497 36,000  Level Indianapolis Center
Sun 08:45:55 PM 39.9703 -86.8119 267° West 432 497 36,000  Level Indianapolis Center
Sun 08:46:56 PM 39.9650 -86.9656 267° West 427 491 36,000  Level Indianapolis Center
Sun 08:47:58 PM 39.9589 -87.1456 268° West 425 489 36,000  Level Indianapolis Center
Sun 08:48:59 PM 39.9536 -87.3006 268° West 427 491 36,000  Level Indianapolis Center
Sun 08:50:01 PM 39.9475 -87.4558 267° West 428 493 36,000  Level Indianapolis Center
Sun 08:51:02 PM 39.9406 -87.6108 267° West 428 493 36,000  Level Indianapolis Center
Sun 08:52:04 PM 39.9344 -87.7658 267° West 426 490 36,000  Level Indianapolis Center
Sun 08:52:50 PM 39.9303 -87.8956 268° West 427 491 36,000  Level Chicago Center
Sun 08:53:52 PM 39.9236 -88.0511 267° West 429 494 36,000  Level Chicago Center
Sun 08:54:54 PM 39.9172 -88.1969 267° West 431 496 36,000  Level Chicago Center
Sun 08:55:56 PM 39.9106 -88.3533 267° West 431 496 36,000 72 Level Chicago Center
Sun 08:56:17 PM 39.9056 -88.4178 264° West 436 502 36,100  Climbing Kansas City Center
Sun 08:57:18 PM 39.8975 -88.5733 266° West 433 498 36,000 -49 Descending Kansas City Center
Sun 08:58:20 PM 39.8903 -88.7311 267° West 435 501 36,000  Level Kansas City Center
Sun 08:59:22 PM 39.8825 -88.8889 266° West 436 502 36,000  Level Kansas City Center
Sun 09:00:23 PM 39.8733 -89.0489 266° West 440 506 36,000  Level Kansas City Center
Sun 09:01:25 PM 39.8644 -89.2422 267° West 444 511 36,000  Level Kansas City Center
Sun 09:02:26 PM 39.8553 -89.4011 266° West 442 509 36,000  Level Kansas City Center
Sun 09:03:28 PM 39.8458 -89.5594 266° West 440 506 36,000  Level Kansas City Center
Sun 09:04:30 PM 39.8389 -89.7208 267° West 442 509 36,000  Level Kansas City Center
Sun 09:05:31 PM 39.8411 -89.8819 271° West 444 511 36,000  Level Kansas City Center
Sun 09:06:33 PM 39.8431 -90.0397 271° West 441 507 36,000  Level Kansas City Center
Sun 09:07:34 PM 39.8450 -90.1978 271° West 438 504 36,000  Level Kansas City Center
Sun 09:08:36 PM 39.8458 -90.3553 270° West 436 502 36,000  Level Kansas City Center
Sun 09:09:38 PM 39.8472 -90.5119 271° West 432 497 36,000  Level Kansas City Center
Sun 09:10:39 PM 39.8478 -90.6722 270° West 438 504 36,000  Level Kansas City Center
Sun 09:11:41 PM 39.8481 -90.8597 270° West 435 501 36,000  Level Kansas City Center
Sun 09:12:42 PM 39.8483 -91.0131 270° West 431 496 36,000  Level Kansas City Center
Sun 09:13:44 PM 39.8478 -91.1661 270° West 428 493 36,000  Level Kansas City Center
Sun 09:14:45 PM 39.8453 -91.3197 269° West 427 491 36,000  Level Kansas City Center
Sun 09:15:47 PM 39.8328 -91.4769 264° West 433 498 36,000  Level Kansas City Center
Sun 09:16:48 PM 39.8217 -91.6325 265° West 436 502 36,000  Level Kansas City Center
Sun 09:17:50 PM 39.8100 -91.7883 264° West 435 501 36,000  Level Kansas City Center
Sun 09:18:51 PM 39.7950 -91.9742 264° West 434 499 36,000  Level Kansas City Center
Sun 09:19:53 PM 39.7833 -92.1292 264° West 432 497 36,000 -146 Level Kansas City Center
Sun 09:20:54 PM 39.7719 -92.2847 265° West 433 498 35,700 -1,268 Descending Kansas City Center
Sun 09:21:56 PM 39.7592 -92.4361 264° West 429 494 33,400 -2,341 Descending Kansas City Center
Sun 09:22:57 PM 39.7461 -92.5825 263° West 417 480 30,900 -2,293 Descending Kansas City Center
Sun 09:23:59 PM 39.7333 -92.7369 264° West 422 486 28,700 -2,146 Descending Kansas City Center
Sun 09:25:00 PM 39.7194 -92.8978 264° West 439 505 26,500 -2,311 Descending Kansas City Center
Sun 09:26:01 PM 39.7058 -93.0550 264° West 442 509 24,000 -2,488 Descending Kansas City Center
Sun 09:27:03 PM 39.6908 -93.2347 264° West 423 487 21,400 -2,293 Descending Kansas City Center
Sun 09:28:04 PM 39.6772 -93.3789 263° West 409 471 19,300 -2,049 Descending Kansas City Center
Sun 09:29:06 PM 39.6639 -93.5169 263° West 398 458 17,200 -2,000 Descending Kansas City Center
Sun 09:30:07 PM 39.6511 -93.6503 263° West 381 438 15,200 -2,066 Descending Kansas City Center
Sun 09:31:08 PM 39.6389 -93.7994 264° West 377 434 13,000 -1,902 Descending Kansas City Center
Sun 09:32:10 PM 39.6103 -93.9200 253° West 363 418 11,300 -1,122 Descending Kansas City Center
Sun 09:33:11 PM 39.5589 -94.0189 236° Southwest 347 399 10,700 -585 Descending Kansas City Center
Sun 09:34:13 PM 39.5144 -94.1486 246° West 359 413 10,100 -390 Descending Kansas City Center
Sun 09:35:14 PM 39.4958 -94.2533 257° West 301 346 9,900 -1,082 Descending Kansas City Center
Sun 09:36:15 PM 39.4747 -94.3581 255° West 271 312 7,900 -1,805 Descending Kansas City Center
Sun 09:37:17 PM 39.4581 -94.4472 256° West 266 306 6,200 -1,659 Descending Kansas City Center
Sun 09:38:18 PM 39.4569 -94.5367 269° West 258 297 4,500 -1,672 Descending Kansas City Center

Login

Don't have an account? Register now (free) for customized features, flight alerts, and more!